Terminal Aerodrome Forecast
Issued by NWS

Home | Current Version | Previous Version | Text Only | Print | Product List | Glossary On
Versions: 1 2 3 4 5 6 7 8 9 10 11 12 13 14 15 16 17 18 19 20 21 22 23 24 25 26 27 28 29 30 31 32 33 34 35 36 37 38 39 40 41 42 43 44 45 46 47 48 49 50
000
FTUS43 KMKX 232320
TAFENW
TAF
KENW 232320Z 2400/2424 03012G18KT 6SM RA OVC020
     FM240300 04015G22KT 5SM RA OVC010
     FM240600 04015G24KT 3SM RA OVC005
     FM240900 05017G28KT 2SM RA VCTS OVC004CB
     FM241100 05015G25KT 3SM -RA OVC003
     FM242000 03012KT 2SM -SHRA OVC005=

USA.gov is the U.S. government's official web portal to all federal, state and local government web resources and services.